createdAt,value
2022-08-17T00:00:43.644Z,100.00
2022-08-17T00:03:22.353Z,100.00
2022-08-17T00:06:22.153Z,100.00
2022-08-17T00:09:10.185Z,100.00
2022-08-17T00:12:42.317Z,100.00
2022-08-17T00:14:49.649Z,100.00
2022-08-17T00:17:36.832Z,100.00
2022-08-17T00:20:33.614Z,100.00
2022-08-17T00:23:16.473Z,100.00
2022-08-17T00:26:04.539Z,100.00
2022-08-17T00:28:51.697Z,100.00
2022-08-17T00:31:39.337Z,100.00
2022-08-17T00:34:27.905Z,100.00
2022-08-17T00:37:15.026Z,100.00
2022-08-17T00:40:02.869Z,100.00
2022-08-17T00:42:51.307Z,100.00
2022-08-17T00:45:38.864Z,100.00
2022-08-17T00:48:29.075Z,100.00
2022-08-17T00:51:22.009Z,100.00
2022-08-17T00:54:15.096Z,100.00
2022-08-17T00:57:11.279Z,100.00
2022-08-17T01:00:02.963Z,100.00
2022-08-17T01:02:51.326Z,100.00
2022-08-17T01:05:42.118Z,100.00
2022-08-17T01:08:30.367Z,100.00
2022-08-17T01:11:17.768Z,100.00
2022-08-17T01:14:05.625Z,100.00
2022-08-17T01:16:55.794Z,100.00
2022-08-17T01:19:43.455Z,100.00
2022-08-17T01:22:32.474Z,100.00
2022-08-17T01:25:21.176Z,100.00
2022-08-17T01:28:09.880Z,100.00
2022-08-17T01:30:59.491Z,100.00
2022-08-17T01:33:46.633Z,100.00
2022-08-17T01:36:36.480Z,100.00
2022-08-17T01:39:35.837Z,100.00
2022-08-17T01:42:37.991Z,100.00
2022-08-17T01:48:13.641Z,100.00
2022-08-17T01:51:01.679Z,100.00
2022-08-17T01:53:51.929Z,100.00
2022-08-17T01:56:42.415Z,100.00
2022-08-17T01:59:29.553Z,100.00
2022-08-17T02:02:31.074Z,100.00
2022-08-17T02:05:06.864Z,100.00
2022-08-17T02:08:00.349Z,100.00
2022-08-17T02:10:46.728Z,100.00
2022-08-17T02:13:34.944Z,100.00
2022-08-17T02:16:22.312Z,100.00
2022-08-17T02:19:13.067Z,100.00
2022-08-17T02:21:59.631Z,100.00
2022-08-17T02:24:58.908Z,100.00
2022-08-17T02:27:37.889Z,100.00
2022-08-17T02:31:00.627Z,100.00
2022-08-17T02:33:17.467Z,100.00
2022-08-17T02:36:08.791Z,100.00
2022-08-17T02:38:57.128Z,100.00
2022-08-17T02:41:45.202Z,100.00
2022-08-17T02:44:39.443Z,100.00
2022-08-17T02:47:22.553Z,100.00
2022-08-17T02:50:11.337Z,100.00
2022-08-17T02:53:02.463Z,100.00
2022-08-17T02:55:48.119Z,100.00
2022-08-17T02:58:36.207Z,100.00
2022-08-17T03:01:23.625Z,100.00
2022-08-17T03:04:11.510Z,100.00
2022-08-17T03:06:59.027Z,100.00
2022-08-17T03:09:46.393Z,100.00
2022-08-17T03:12:39.536Z,100.00
2022-08-17T03:15:28.831Z,100.00
2022-08-17T03:18:25.444Z,100.00
2022-08-17T03:21:11.793Z,100.00
2022-08-17T03:23:59.472Z,100.00
2022-08-17T03:26:46.857Z,100.00
2022-08-17T03:29:33.952Z,100.00
2022-08-17T03:32:21.447Z,100.00
2022-08-17T03:35:09.664Z,100.00
2022-08-17T03:38:00.487Z,100.00
2022-08-17T03:40:56.389Z,100.00
2022-08-17T03:43:38.799Z,100.00
2022-08-17T03:46:44.232Z,100.00
2022-08-17T03:49:49.504Z,100.00
2022-08-17T03:52:54.991Z,100.00
2022-08-17T03:56:00.544Z,100.00
2022-08-17T03:58:48.535Z,100.00
2022-08-17T04:01:35.721Z,100.00
2022-08-17T04:04:27.519Z,100.00
2022-08-17T04:07:13.121Z,100.00
2022-08-17T04:10:00.411Z,100.00
2022-08-17T04:12:54.049Z,100.00
2022-08-17T04:15:42.061Z,100.00
2022-08-17T04:18:29.249Z,100.00
2022-08-17T04:21:17.000Z,100.00
2022-08-17T04:24:04.673Z,100.00
2022-08-17T04:26:54.586Z,100.00
2022-08-17T04:29:49.954Z,100.00
2022-08-17T04:33:04.386Z,100.00
2022-08-17T04:35:22.937Z,100.00
2022-08-17T04:38:13.525Z,100.00
2022-08-17T04:41:18.938Z,100.00
2022-08-17T04:44:06.763Z,100.00
2022-08-17T04:46:54.321Z,100.00
2022-08-17T04:49:42.024Z,99.67
2022-08-17T04:52:29.662Z,99.70
2022-08-17T04:55:18.232Z,99.44
2022-08-17T04:58:06.183Z,99.05
2022-08-17T05:00:54.265Z,98.54
2022-08-17T05:03:42.088Z,98.28
2022-08-17T05:06:30.393Z,98.25
2022-08-17T05:09:18.781Z,98.06
2022-08-17T05:12:06.272Z,97.97
2022-08-17T05:14:53.856Z,97.95
2022-08-17T05:17:41.449Z,98.11
2022-08-17T05:20:29.355Z,97.85
2022-08-17T05:23:19.192Z,97.79
2022-08-17T05:26:07.905Z,97.93
2022-08-17T05:28:59.618Z,97.71
2022-08-17T05:31:46.737Z,97.50
2022-08-17T05:34:33.984Z,97.35
2022-08-17T05:37:20.985Z,97.22
2022-08-17T05:40:10.162Z,96.80
2022-08-17T05:43:12.242Z,96.76
2022-08-17T05:46:23.396Z,96.36
2022-08-17T05:49:11.336Z,96.71
2022-08-17T05:52:04.713Z,96.76
2022-08-17T05:55:04.225Z,96.25
2022-08-17T05:57:57.312Z,95.70
2022-08-17T06:01:03.315Z,95.29
2022-08-17T06:04:21.898Z,94.91
2022-08-17T06:07:27.296Z,93.80
2022-08-17T06:10:20.804Z,92.86
2022-08-17T06:13:13.992Z,92.27
2022-08-17T06:16:04.596Z,91.57
2022-08-17T06:19:01.961Z,91.93
2022-08-17T06:21:52.209Z,92.18
2022-08-17T06:24:45.581Z,91.85
2022-08-17T06:27:38.517Z,91.14
2022-08-17T06:30:29.658Z,90.38
2022-08-17T06:33:22.380Z,89.29
2022-08-17T06:36:35.970Z,88.21
2022-08-17T06:39:51.186Z,87.71
2022-08-17T06:43:02.569Z,86.28
2022-08-17T06:45:49.603Z,84.09
2022-08-17T06:48:55.890Z,82.64
2022-08-17T06:51:46.649Z,81.54
2022-08-17T06:54:40.185Z,80.39
2022-08-17T06:57:32.329Z,78.37
2022-08-17T07:00:24.936Z,78.54
2022-08-17T07:03:23.771Z,77.53
2022-08-17T07:06:22.449Z,77.78
2022-08-17T07:09:18.676Z,78.32
2022-08-17T07:12:17.417Z,78.50
2022-08-17T07:15:10.959Z,78.56
2022-08-17T07:18:00.828Z,77.83
2022-08-17T07:20:49.729Z,77.36
2022-08-17T07:26:25.345Z,75.90
2022-08-17T07:29:14.361Z,75.24
2022-08-17T07:32:02.049Z,74.89
2022-08-17T07:35:15.216Z,74.26
2022-08-17T07:38:24.763Z,72.67
2022-08-17T07:41:08.689Z,72.73
2022-08-17T07:43:57.472Z,72.25
2022-08-17T07:47:11.913Z,72.04
2022-08-17T07:49:59.842Z,72.08
2022-08-17T07:52:51.932Z,71.80
2022-08-17T07:55:38.089Z,71.79
2022-08-17T07:58:26.721Z,71.76
2022-08-17T08:01:17.813Z,70.05
2022-08-17T08:04:59.067Z,71.39
2022-08-17T08:07:22.531Z,72.62
2022-08-17T08:10:16.089Z,71.95
2022-08-17T08:13:25.154Z,69.63
2022-08-17T08:16:21.354Z,68.39
2022-08-17T08:19:09.330Z,65.19
2022-08-17T08:21:59.984Z,63.93
2022-08-17T08:25:10.250Z,64.51
2022-08-17T08:28:06.809Z,64.50
2022-08-17T08:30:57.727Z,64.34
2022-08-17T08:33:48.506Z,63.14
2022-08-17T08:36:59.343Z,62.10
2022-08-17T08:39:48.861Z,62.03
2022-08-17T08:42:48.800Z,62.75
2022-08-17T08:45:41.874Z,63.70
2022-08-17T08:48:55.832Z,63.86
2022-08-17T08:51:59.272Z,62.66
2022-08-17T08:57:37.697Z,60.61
2022-08-17T09:00:27.275Z,59.62
2022-08-17T09:03:51.227Z,59.03
2022-08-17T09:06:40.275Z,57.91
2022-08-17T09:09:33.722Z,57.63
2022-08-17T09:12:42.082Z,58.37
2022-08-17T09:15:35.404Z,58.23
2022-08-17T09:19:01.184Z,56.60
2022-08-17T09:21:33.931Z,55.54
2022-08-17T09:24:40.161Z,54.57
2022-08-17T09:27:33.233Z,55.91
2022-08-17T09:30:21.658Z,55.91
2022-08-17T09:33:11.601Z,55.77
2022-08-17T09:36:02.081Z,56.02
2022-08-17T09:39:01.768Z,56.54
2022-08-17T09:41:54.556Z,56.96
2022-08-17T09:44:57.241Z,56.22
2022-08-17T09:47:48.044Z,54.38
2022-08-17T09:50:55.568Z,53.79
2022-08-17T09:53:39.684Z,54.12
2022-08-17T09:56:35.633Z,53.23
2022-08-17T09:59:46.057Z,52.26
2022-08-17T10:03:02.689Z,51.61
2022-08-17T10:09:02.234Z,51.16
2022-08-17T10:12:13.648Z,53.46
2022-08-17T10:15:14.776Z,53.46
2022-08-17T10:18:30.375Z,54.65
2022-08-17T10:21:37.176Z,56.29
2022-08-17T10:25:21.148Z,56.10
2022-08-17T10:27:43.625Z,54.66
2022-08-17T10:30:32.882Z,53.53
2022-08-17T10:33:24.878Z,53.53
2022-08-17T10:36:30.037Z,53.29
2022-08-17T10:39:50.381Z,53.54
2022-08-17T10:42:36.536Z,56.21
2022-08-17T10:45:27.074Z,58.72
2022-08-17T10:48:29.800Z,59.79
2022-08-17T10:51:40.632Z,60.13
2022-08-17T10:54:31.127Z,55.52
2022-08-17T10:57:34.010Z,55.52
2022-08-17T11:00:27.734Z,50.67
2022-08-17T11:03:23.650Z,51.00
2022-08-17T11:09:05.552Z,52.88
2022-08-17T11:12:17.744Z,54.49
2022-08-17T11:15:08.713Z,54.57
2022-08-17T11:18:15.080Z,55.28
2022-08-17T11:21:29.847Z,56.89
2022-08-17T11:24:45.705Z,56.89
2022-08-17T11:27:35.333Z,57.33
2022-08-17T11:30:46.697Z,53.43
2022-08-17T11:33:39.345Z,46.67
2022-08-17T11:36:47.632Z,46.67
2022-08-17T11:39:38.508Z,46.13
2022-08-17T11:42:48.540Z,48.09
2022-08-17T11:45:57.933Z,53.34
2022-08-17T11:49:24.751Z,55.54
2022-08-17T11:52:18.200Z,56.96
2022-08-17T11:55:33.934Z,58.87
2022-08-17T11:58:36.481Z,60.34
2022-08-17T12:01:30.230Z,61.05
2022-08-17T12:04:31.765Z,61.63
2022-08-17T12:07:23.249Z,62.32
2022-08-17T12:10:12.528Z,62.20
2022-08-17T12:13:08.192Z,61.22
2022-08-17T12:15:56.631Z,60.09
2022-08-17T12:18:54.023Z,60.18
2022-08-17T12:21:50.717Z,59.01
2022-08-17T12:25:01.029Z,57.79
2022-08-17T12:28:06.087Z,55.84
2022-08-17T12:30:39.297Z,53.88
2022-08-17T12:33:29.024Z,52.08
2022-08-17T12:36:18.247Z,50.54
2022-08-17T12:39:14.139Z,50.36
2022-08-17T12:42:02.557Z,49.60
2022-08-17T12:44:50.460Z,47.74
2022-08-17T12:47:39.073Z,46.47
2022-08-17T12:50:28.820Z,46.26
2022-08-17T12:53:27.519Z,47.06
2022-08-17T12:56:15.169Z,48.28
2022-08-17T12:59:03.170Z,49.27
2022-08-17T13:01:51.091Z,51.84
2022-08-17T13:04:40.568Z,52.47
2022-08-17T13:07:31.689Z,52.93
2022-08-17T13:10:22.351Z,53.67
2022-08-17T13:13:27.217Z,54.53
2022-08-17T13:16:20.449Z,54.72
2022-08-17T13:19:09.888Z,55.45
2022-08-17T13:22:00.169Z,56.79
2022-08-17T13:24:54.227Z,57.00
2022-08-17T13:27:43.957Z,57.75
2022-08-17T13:30:33.627Z,58.34
2022-08-17T13:33:44.751Z,58.28
2022-08-17T13:36:31.663Z,56.52
2022-08-17T13:39:21.640Z,56.41
2022-08-17T13:42:28.248Z,56.86
2022-08-17T13:48:22.936Z,57.64
2022-08-17T13:51:22.752Z,57.61
2022-08-17T13:54:25.553Z,58.00
2022-08-17T13:57:24.728Z,57.04
2022-08-17T14:00:21.615Z,57.56
2022-08-17T14:03:08.832Z,58.06
2022-08-17T14:05:56.268Z,58.57
2022-08-17T14:08:43.506Z,58.01
2022-08-17T14:11:31.008Z,57.25
2022-08-17T14:14:19.247Z,55.93
2022-08-17T14:17:08.002Z,53.47
2022-08-17T14:19:55.720Z,52.54
2022-08-17T14:22:45.554Z,53.40
2022-08-17T14:25:32.583Z,53.40
2022-08-17T14:28:20.263Z,53.49
2022-08-17T14:31:10.770Z,52.60
2022-08-17T14:33:59.137Z,48.93
2022-08-17T14:36:48.592Z,42.96
2022-08-17T14:39:36.115Z,39.96
2022-08-17T14:42:26.366Z,36.85
2022-08-17T14:45:31.487Z,34.94
2022-08-17T14:48:06.667Z,34.17
2022-08-17T14:50:54.609Z,33.23
2022-08-17T14:53:43.291Z,32.58
2022-08-17T14:56:35.344Z,31.65
2022-08-17T14:59:19.945Z,31.20
2022-08-17T15:02:07.730Z,32.15
2022-08-17T15:04:56.537Z,32.22
2022-08-17T15:07:44.787Z,31.68
2022-08-17T15:10:32.468Z,31.86
2022-08-17T15:13:23.209Z,31.51
2022-08-17T15:16:12.032Z,30.53
2022-08-17T15:18:59.713Z,29.65
2022-08-17T15:21:47.652Z,29.34
2022-08-17T15:24:35.369Z,28.22
2022-08-17T15:27:24.320Z,28.17
2022-08-17T15:30:13.635Z,28.61
2022-08-17T15:33:02.346Z,29.70
2022-08-17T15:35:54.324Z,31.60
2022-08-17T15:38:42.153Z,34.03
2022-08-17T15:41:31.563Z,36.75
2022-08-17T15:44:19.449Z,40.27
2022-08-17T15:47:06.742Z,43.63
2022-08-17T15:49:59.421Z,46.03
2022-08-17T15:52:44.641Z,47.92
2022-08-17T15:55:33.115Z,50.10
2022-08-17T15:58:20.497Z,51.74
2022-08-17T16:01:16.583Z,52.82
2022-08-17T16:04:07.319Z,53.45
2022-08-17T16:06:49.055Z,53.79
2022-08-17T16:09:38.637Z,54.36
2022-08-17T16:12:27.667Z,54.76
2022-08-17T16:15:16.407Z,55.90
2022-08-17T16:18:03.408Z,57.04
2022-08-17T16:20:50.560Z,57.43
2022-08-17T16:23:38.009Z,58.08
2022-08-17T16:26:26.384Z,58.83
2022-08-17T16:29:13.529Z,59.34
2022-08-17T16:32:15.177Z,59.46
2022-08-17T16:35:04.184Z,59.33
2022-08-17T16:37:53.195Z,60.02
2022-08-17T16:40:41.561Z,60.12
2022-08-17T16:43:30.274Z,59.97
2022-08-17T16:46:18.275Z,59.39
2022-08-17T16:49:06.321Z,58.74
2022-08-17T16:52:03.448Z,58.53
2022-08-17T16:54:51.331Z,59.09
2022-08-17T16:57:50.393Z,59.62
2022-08-17T17:00:28.217Z,59.87
2022-08-17T17:03:20.536Z,60.51
2022-08-17T17:06:22.177Z,61.31
2022-08-17T17:09:16.561Z,61.93
2022-08-17T17:12:06.857Z,62.99
2022-08-17T17:14:55.906Z,64.28
2022-08-17T17:17:44.348Z,65.37
2022-08-17T17:20:36.321Z,66.08
2022-08-17T17:26:43.392Z,68.44
2022-08-17T17:29:56.944Z,69.47
2022-08-17T17:32:59.010Z,70.49
2022-08-17T17:35:59.293Z,71.58
2022-08-17T17:38:47.585Z,72.58
2022-08-17T17:41:44.210Z,73.45
2022-08-17T17:44:37.553Z,74.12
2022-08-17T17:47:25.377Z,75.06
2022-08-17T17:50:12.865Z,76.03
2022-08-17T17:53:09.555Z,76.85
2022-08-17T17:56:40.260Z,77.46
2022-08-17T17:59:18.888Z,78.04
2022-08-17T18:02:15.773Z,79.23
2022-08-17T18:05:06.641Z,80.52
2022-08-17T18:11:09.097Z,83.32
2022-08-17T18:14:17.457Z,83.61
2022-08-17T18:17:05.065Z,84.13
2022-08-17T18:19:53.610Z,85.16
2022-08-17T18:22:40.650Z,86.13
2022-08-17T18:25:45.857Z,86.97
2022-08-17T18:28:40.323Z,87.82
2022-08-17T18:31:28.040Z,89.41
2022-08-17T18:34:46.648Z,90.38
2022-08-17T18:37:37.225Z,91.14
2022-08-17T18:40:30.730Z,91.64
2022-08-17T18:46:28.575Z,93.08
2022-08-17T18:49:29.436Z,93.47
2022-08-17T18:52:20.201Z,93.94
2022-08-17T18:55:14.364Z,94.79
2022-08-17T18:58:16.185Z,95.17
2022-08-17T19:01:03.706Z,95.67
2022-08-17T19:03:52.075Z,95.71
2022-08-17T19:06:40.137Z,95.79
2022-08-17T19:09:30.961Z,95.63
2022-08-17T19:15:09.689Z,94.92
2022-08-17T19:18:03.293Z,95.00
2022-08-17T19:21:04.886Z,95.26
2022-08-17T19:24:17.218Z,95.65
2022-08-17T19:27:25.839Z,95.71
2022-08-17T19:30:17.257Z,95.46
2022-08-17T19:33:05.480Z,95.15
2022-08-17T19:36:18.953Z,95.77
2022-08-17T19:39:18.241Z,96.68
2022-08-17T19:42:20.792Z,96.98
2022-08-17T19:45:11.592Z,97.31
2022-08-17T19:48:08.557Z,97.66
2022-08-17T19:50:59.905Z,98.20
2022-08-17T19:54:07.536Z,98.55
2022-08-17T19:57:09.799Z,98.77
2022-08-17T20:03:16.792Z,99.06
2022-08-17T20:06:14.256Z,99.29
2022-08-17T20:09:09.500Z,99.48
2022-08-17T20:12:01.746Z,99.23
2022-08-17T20:14:55.926Z,99.55
2022-08-17T20:17:46.179Z,99.84
2022-08-17T20:21:00.032Z,100.00
2022-08-17T20:24:09.361Z,100.00
2022-08-17T20:27:05.209Z,100.00
2022-08-17T20:30:11.545Z,100.00
2022-08-17T20:33:02.856Z,100.00
2022-08-17T20:36:15.675Z,100.00
2022-08-17T20:39:03.104Z,100.00
2022-08-17T20:42:12.858Z,100.00
2022-08-17T20:45:04.811Z,100.00
2022-08-17T20:48:30.521Z,100.00
2022-08-17T20:50:56.192Z,100.00
2022-08-17T20:53:55.268Z,100.00
2022-08-17T20:56:47.736Z,100.00
2022-08-17T20:59:38.626Z,100.00
2022-08-17T21:02:27.564Z,100.00
2022-08-17T21:05:36.448Z,100.00
2022-08-17T21:08:30.240Z,100.00
2022-08-17T21:11:57.009Z,100.00
2022-08-17T21:14:26.177Z,100.00
2022-08-17T21:17:29.042Z,100.00
2022-08-17T21:20:25.545Z,100.00
2022-08-17T21:23:25.112Z,100.00
2022-08-17T21:26:18.114Z,100.00
2022-08-17T21:29:30.433Z,100.00
2022-08-17T21:32:10.481Z,100.00
2022-08-17T21:35:09.688Z,100.00
2022-08-17T21:38:05.264Z,100.00
2022-08-17T21:40:54.057Z,100.00
2022-08-17T21:43:44.419Z,100.00
2022-08-17T21:46:36.300Z,100.00
2022-08-17T21:49:26.920Z,100.00
2022-08-17T21:52:19.434Z,100.00
2022-08-17T21:55:07.716Z,100.00
2022-08-17T21:58:13.708Z,100.00
2022-08-17T22:00:45.139Z,100.00
2022-08-17T22:03:33.730Z,100.00
2022-08-17T22:06:23.825Z,100.00
2022-08-17T22:09:26.082Z,100.00
2022-08-17T22:12:24.570Z,100.00
2022-08-17T22:15:13.404Z,100.00
2022-08-17T22:18:02.651Z,100.00
2022-08-17T22:20:55.802Z,100.00
2022-08-17T22:24:03.882Z,100.00
2022-08-17T22:27:10.569Z,100.00
2022-08-17T22:29:59.971Z,100.00
2022-08-17T22:32:49.979Z,100.00
2022-08-17T22:35:40.194Z,100.00
2022-08-17T22:38:29.682Z,100.00
2022-08-17T22:41:32.635Z,100.00
2022-08-17T22:44:30.266Z,100.00
2022-08-17T22:47:20.580Z,100.00
2022-08-17T22:50:11.429Z,100.00
2022-08-17T22:53:35.003Z,100.00
2022-08-17T22:56:43.035Z,100.00
2022-08-17T22:59:41.740Z,100.00
2022-08-17T23:02:36.311Z,100.00
2022-08-17T23:05:25.472Z,100.00
2022-08-17T23:08:15.251Z,100.00
2022-08-17T23:11:02.858Z,100.00
2022-08-17T23:13:50.549Z,100.00
2022-08-17T23:16:39.299Z,100.00
2022-08-17T23:19:27.445Z,100.00
2022-08-17T23:22:15.202Z,100.00
2022-08-17T23:25:02.802Z,100.00
2022-08-17T23:27:51.071Z,100.00
2022-08-17T23:30:40.666Z,100.00
2022-08-17T23:33:31.176Z,100.00
2022-08-17T23:36:18.731Z,100.00
2022-08-17T23:39:06.966Z,100.00
2022-08-17T23:41:54.459Z,100.00
2022-08-17T23:44:43.946Z,100.00
2022-08-17T23:47:31.330Z,100.00
2022-08-17T23:50:19.659Z,100.00
2022-08-17T23:53:07.802Z,100.00
2022-08-17T23:56:10.390Z,100.00
2022-08-17T23:58:46.355Z,100.00
